createdAt,value
2018-05-14T00:01:15.995Z,5.90
2018-05-14T00:03:43.482Z,5.23
2018-05-14T00:06:11.700Z,5.97
2018-05-14T00:08:39.148Z,5.93
2018-05-14T00:11:06.590Z,6.07
2018-05-14T00:13:34.047Z,6.10
2018-05-14T00:16:01.495Z,5.77
2018-05-14T00:18:28.960Z,6.10
2018-05-14T00:20:56.411Z,5.57
2018-05-14T00:23:24.288Z,6.27
2018-05-14T00:25:51.744Z,5.93
2018-05-14T00:28:19.207Z,5.90
2018-05-14T00:30:46.650Z,6.80
2018-05-14T00:33:14.124Z,6.43
2018-05-14T00:35:41.584Z,6.40
2018-05-14T00:38:09.048Z,6.77
2018-05-14T00:40:36.501Z,6.23
2018-05-14T00:43:03.983Z,6.20
2018-05-14T00:45:31.435Z,6.47
2018-05-14T00:47:58.894Z,5.93
2018-05-14T00:50:26.362Z,6.07
2018-05-14T00:52:53.811Z,5.90
2018-05-14T00:55:21.276Z,6.07
2018-05-14T00:57:48.840Z,6.10
2018-05-14T01:00:16.288Z,6.23
2018-05-14T01:02:43.851Z,6.00
2018-05-14T01:05:11.794Z,5.73
2018-05-14T01:07:39.279Z,5.23
2018-05-14T01:10:06.735Z,6.10
2018-05-14T01:12:34.186Z,6.10
2018-05-14T01:15:01.671Z,5.90
2018-05-14T01:17:29.901Z,5.60
2018-05-14T01:19:57.366Z,5.70
2018-05-14T01:22:24.828Z,6.57
2018-05-14T01:24:58.112Z,6.13
2018-05-14T01:27:25.580Z,7.10
2018-05-14T01:29:53.061Z,5.60
2018-05-14T01:32:20.525Z,6.10
2018-05-14T01:34:47.986Z,7.30
2018-05-14T01:37:15.450Z,6.97
2018-05-14T01:39:42.886Z,6.70
2018-05-14T01:42:10.764Z,7.00
2018-05-14T01:44:38.218Z,6.40
2018-05-14T01:47:05.713Z,7.07
2018-05-14T01:49:33.923Z,6.97
2018-05-14T01:52:01.422Z,6.17
2018-05-14T01:54:28.859Z,6.80
2018-05-14T01:56:56.326Z,7.33
2018-05-14T01:59:23.796Z,6.67
2018-05-14T02:01:58.307Z,6.30
2018-05-14T02:04:25.776Z,7.57
2018-05-14T02:06:53.255Z,6.73
2018-05-14T02:09:20.791Z,6.60
2018-05-14T02:11:48.346Z,6.90
2018-05-14T02:14:15.790Z,7.07
2018-05-14T02:16:44.064Z,7.50
2018-05-14T02:19:11.546Z,7.70
2018-05-14T02:21:39.000Z,7.90
2018-05-14T02:24:07.171Z,7.80
2018-05-14T02:26:34.629Z,7.07
2018-05-14T02:29:02.141Z,7.03
2018-05-14T02:31:29.595Z,7.30
2018-05-14T02:33:57.836Z,7.03
2018-05-14T02:36:25.292Z,7.40
2018-05-14T02:38:52.747Z,7.80
2018-05-14T02:41:20.218Z,6.57
2018-05-14T02:43:47.773Z,7.20
2018-05-14T02:46:15.327Z,7.90
2018-05-14T02:48:42.878Z,7.17
2018-05-14T02:51:10.339Z,8.53
2018-05-14T02:53:37.808Z,8.00
2018-05-14T02:56:05.252Z,7.67
2018-05-14T02:58:32.707Z,7.53
2018-05-14T03:01:00.184Z,8.17
2018-05-14T03:03:27.654Z,8.10
2018-05-14T03:05:55.912Z,8.10
2018-05-14T03:08:23.383Z,7.70
2018-05-14T03:10:50.837Z,7.20
2018-05-14T03:13:18.331Z,8.13
2018-05-14T03:15:46.570Z,6.50
2018-05-14T03:18:14.056Z,7.17
2018-05-14T03:20:41.585Z,7.20
2018-05-14T03:23:09.145Z,6.97
2018-05-14T03:25:36.605Z,6.50
2018-05-14T03:28:04.065Z,6.90
2018-05-14T03:30:31.550Z,7.43
2018-05-14T03:32:59.793Z,7.30
2018-05-14T03:35:27.240Z,7.70
2018-05-14T03:37:54.713Z,7.97
2018-05-14T03:40:22.208Z,9.10
2018-05-14T03:42:50.435Z,6.40
2018-05-14T03:45:17.973Z,7.77
2018-05-14T03:47:45.467Z,6.70
2018-05-14T03:50:13.034Z,7.73
2018-05-14T03:52:40.487Z,7.67
2018-05-14T03:55:07.954Z,9.57
2018-05-14T03:57:36.949Z,8.90
2018-05-14T04:00:16.384Z,8.80
2018-05-14T04:02:55.671Z,8.87
2018-05-14T04:08:22.606Z,8.27
2018-05-14T04:10:50.021Z,7.60
2018-05-14T04:13:17.609Z,9.83
2018-05-14T04:15:45.261Z,7.57
2018-05-14T04:18:12.988Z,8.27
2018-05-14T04:20:40.489Z,9.00
2018-05-14T04:23:07.948Z,8.80
2018-05-14T04:25:35.404Z,8.93
2018-05-14T04:28:02.860Z,7.67
2018-05-14T04:30:30.419Z,8.30
2018-05-14T04:32:57.883Z,8.20
2018-05-14T04:35:25.348Z,8.43
2018-05-14T04:37:52.804Z,8.87
2018-05-14T04:40:20.267Z,8.60
2018-05-14T04:42:47.811Z,8.33
2018-05-14T04:45:15.272Z,8.53
2018-05-14T04:47:43.499Z,8.97
2018-05-14T04:50:10.963Z,9.40
2018-05-14T04:52:38.448Z,8.93
2018-05-14T04:55:05.913Z,8.00
2018-05-14T04:57:33.384Z,9.10
2018-05-14T05:00:00.949Z,8.77
2018-05-14T05:02:28.408Z,10.20
2018-05-14T05:07:49.400Z,9.20
2018-05-14T05:10:16.873Z,10.17
2018-05-14T05:12:44.336Z,10.17
2018-05-14T05:15:11.917Z,10.20
2018-05-14T05:17:40.159Z,8.83
2018-05-14T05:20:07.619Z,10.37
2018-05-14T05:22:35.077Z,9.73
2018-05-14T05:25:02.536Z,9.40
2018-05-14T05:27:30.000Z,10.17
2018-05-14T05:29:57.572Z,10.43
2018-05-14T05:32:25.029Z,9.60
2018-05-14T05:34:52.497Z,9.00
2018-05-14T05:37:19.990Z,9.83
2018-05-14T05:39:48.211Z,9.37
2018-05-14T05:42:16.058Z,8.70
2018-05-14T05:44:43.512Z,10.20
2018-05-14T05:47:10.980Z,10.20
2018-05-14T05:49:38.456Z,9.47
2018-05-14T05:52:05.916Z,9.50
2018-05-14T05:54:33.379Z,10.70
2018-05-14T05:57:00.836Z,8.87
2018-05-14T05:59:28.402Z,11.07
2018-05-14T06:02:09.253Z,9.83
2018-05-14T06:04:36.736Z,9.80
2018-05-14T06:07:04.227Z,9.97
2018-05-14T06:09:31.708Z,10.20
2018-05-14T06:11:59.116Z,9.80
2018-05-14T06:14:26.584Z,9.60
2018-05-14T06:16:54.129Z,10.40
2018-05-14T06:19:21.592Z,10.30
2018-05-14T06:21:49.916Z,9.57
2018-05-14T06:24:17.427Z,10.57
2018-05-14T06:26:44.887Z,9.93
2018-05-14T06:29:12.355Z,9.87
2018-05-14T06:31:39.819Z,9.83
2018-05-14T06:34:07.298Z,9.00
2018-05-14T06:36:35.516Z,9.50
2018-05-14T06:39:02.990Z,9.97
2018-05-14T06:41:30.442Z,9.13
2018-05-14T06:43:57.917Z,10.10
2018-05-14T06:46:25.376Z,11.53
2018-05-14T06:48:52.838Z,9.80
2018-05-14T06:51:20.296Z,9.47
2018-05-14T06:53:47.752Z,9.90
2018-05-14T06:56:15.221Z,10.27
2018-05-14T06:58:42.696Z,9.93
2018-05-14T07:01:10.909Z,10.37
2018-05-14T07:03:38.369Z,10.77
2018-05-14T07:06:05.842Z,11.00
2018-05-14T07:08:33.434Z,10.53
2018-05-14T07:11:00.785Z,11.20
2018-05-14T07:13:28.255Z,11.00
2018-05-14T07:15:56.487Z,10.47
2018-05-14T07:18:23.953Z,10.00
2018-05-14T07:20:51.431Z,10.23
2018-05-14T07:23:18.895Z,11.37
2018-05-14T07:25:46.364Z,11.23
2018-05-14T07:28:14.600Z,10.73
2018-05-14T07:30:42.140Z,11.80
2018-05-14T07:33:09.597Z,10.50
2018-05-14T07:35:37.063Z,11.53
2018-05-14T07:38:04.531Z,10.83
2018-05-14T07:40:32.032Z,10.23
2018-05-14T07:42:59.452Z,9.20
2018-05-14T07:45:26.919Z,11.10
2018-05-14T07:47:54.376Z,9.90
2018-05-14T07:50:21.852Z,10.63
2018-05-14T07:52:49.308Z,9.63
2018-05-14T07:55:16.767Z,10.53
2018-05-14T07:57:44.231Z,9.20
2018-05-14T08:00:11.773Z,9.77
2018-05-14T08:02:39.153Z,9.83
2018-05-14T08:05:06.607Z,8.13
2018-05-14T08:07:34.063Z,9.33
2018-05-14T08:10:01.518Z,8.50
2018-05-14T08:12:28.985Z,9.97
2018-05-14T08:14:56.447Z,9.80
2018-05-14T08:17:23.907Z,9.33
2018-05-14T08:19:51.380Z,9.60
2018-05-14T08:22:19.607Z,9.10
2018-05-14T08:24:47.072Z,10.17
2018-05-14T08:27:14.540Z,10.83
2018-05-14T08:29:42.008Z,9.17
2018-05-14T08:32:09.933Z,9.33
2018-05-14T08:34:37.387Z,9.83
2018-05-14T08:37:04.929Z,11.13
2018-05-14T08:39:32.335Z,11.03
2018-05-14T08:41:59.793Z,9.83
2018-05-14T08:44:27.270Z,10.00
2018-05-14T08:46:55.106Z,9.90
2018-05-14T08:49:22.760Z,9.17
2018-05-14T08:51:50.021Z,10.83
2018-05-14T08:54:17.514Z,9.93
2018-05-14T08:56:44.948Z,10.07
2018-05-14T08:59:12.407Z,9.63
2018-05-14T09:01:39.879Z,8.90
2018-05-14T09:04:07.331Z,9.03
2018-05-14T09:06:34.800Z,10.77
2018-05-14T09:09:02.269Z,11.40
2018-05-14T09:11:29.730Z,12.33
2018-05-14T09:13:57.967Z,10.23
2018-05-14T09:16:25.433Z,9.33
2018-05-14T09:18:52.892Z,10.47
2018-05-14T09:21:20.346Z,8.70
2018-05-14T09:23:47.806Z,9.80
2018-05-14T09:26:15.264Z,9.00
2018-05-14T09:28:42.724Z,9.67
2018-05-14T09:31:10.185Z,8.40
2018-05-14T09:33:37.664Z,7.33
2018-05-14T09:36:05.130Z,7.30
2018-05-14T09:38:32.577Z,7.47
2018-05-14T09:41:00.055Z,7.20
2018-05-14T09:43:28.285Z,7.83
2018-05-14T09:45:55.735Z,6.17
2018-05-14T09:48:23.197Z,7.07
2018-05-14T09:50:50.652Z,6.63
2018-05-14T09:53:18.118Z,6.00
2018-05-14T09:55:45.590Z,6.93
2018-05-14T09:58:16.269Z,7.50
2018-05-14T10:00:44.496Z,6.13
2018-05-14T10:03:11.955Z,7.63
2018-05-14T10:05:39.423Z,7.20
2018-05-14T10:08:06.876Z,6.20
2018-05-14T10:10:34.596Z,6.87
2018-05-14T10:13:02.083Z,7.10
2018-05-14T10:15:29.539Z,6.63
2018-05-14T10:17:56.996Z,6.30
2018-05-14T10:20:24.456Z,7.40
2018-05-14T10:22:51.916Z,6.67
2018-05-14T10:25:19.395Z,8.63
2018-05-14T10:27:46.851Z,7.97
2018-05-14T10:30:14.315Z,7.73
2018-05-14T10:32:41.772Z,7.07
2018-05-14T10:35:09.242Z,7.10
2018-05-14T10:37:36.695Z,6.43
2018-05-14T10:40:04.153Z,7.03
2018-05-14T10:42:31.605Z,6.60
2018-05-14T10:44:59.063Z,6.33
2018-05-14T10:47:26.528Z,6.90
2018-05-14T10:49:53.984Z,6.00
2018-05-14T10:52:21.440Z,5.90
2018-05-14T10:54:48.893Z,6.27
2018-05-14T10:57:16.356Z,6.07
2018-05-14T10:59:43.820Z,6.10
2018-05-14T11:02:11.488Z,6.23
2018-05-14T11:04:38.939Z,6.50
2018-05-14T11:07:06.413Z,5.47
2018-05-14T11:09:33.863Z,5.80
2018-05-14T11:12:01.347Z,4.70
2018-05-14T11:14:29.571Z,5.77
2018-05-14T11:16:57.527Z,5.70
2018-05-14T11:19:24.975Z,5.60
2018-05-14T11:21:52.427Z,5.00
2018-05-14T11:24:19.884Z,5.90
2018-05-14T11:26:47.352Z,5.97
2018-05-14T11:29:14.809Z,6.50
2018-05-14T11:31:42.272Z,6.17
2018-05-14T11:34:09.724Z,5.67
2018-05-14T11:36:37.189Z,5.03
2018-05-14T11:39:04.648Z,4.93
2018-05-14T11:41:32.104Z,5.33
2018-05-14T11:43:59.576Z,6.13
2018-05-14T11:46:27.041Z,4.90
2018-05-14T11:48:54.489Z,5.17
2018-05-14T11:51:21.941Z,5.30
2018-05-14T11:53:49.397Z,5.37
2018-05-14T11:56:16.856Z,5.53
2018-05-14T11:58:44.316Z,5.37
2018-05-14T12:01:11.775Z,4.80
2018-05-14T12:03:39.233Z,6.23
2018-05-14T12:06:06.697Z,5.13
2018-05-14T12:08:34.168Z,6.10
2018-05-14T12:11:01.625Z,5.77
2018-05-14T12:13:29.088Z,5.40
2018-05-14T12:15:56.545Z,5.20
2018-05-14T12:18:23.994Z,4.00
2018-05-14T12:20:51.456Z,5.47
2018-05-14T12:23:18.926Z,4.50
2018-05-14T12:25:46.473Z,4.60
2018-05-14T12:28:13.835Z,4.17
2018-05-14T12:30:41.301Z,5.30
2018-05-14T12:33:08.763Z,5.00
2018-05-14T12:35:36.988Z,4.77
2018-05-14T12:38:05.212Z,4.00
2018-05-14T12:40:32.669Z,4.20
2018-05-14T12:43:00.141Z,3.83
2018-05-14T12:45:28.355Z,4.40
2018-05-14T12:47:55.844Z,4.00
2018-05-14T12:50:23.295Z,3.80
2018-05-14T12:52:52.037Z,3.73
2018-05-14T12:55:19.491Z,3.83
2018-05-14T12:57:46.956Z,4.53
2018-05-14T13:00:14.411Z,3.90
2018-05-14T13:02:41.916Z,4.13
2018-05-14T13:05:09.383Z,3.90
2018-05-14T13:07:36.852Z,4.40
2018-05-14T13:10:04.316Z,4.23
2018-05-14T13:12:31.780Z,4.27
2018-05-14T13:14:59.237Z,4.47
2018-05-14T13:17:26.701Z,3.80
2018-05-14T13:19:54.163Z,4.60
2018-05-14T13:22:21.627Z,4.97
2018-05-14T13:24:49.091Z,4.40
2018-05-14T13:27:16.570Z,4.10
2018-05-14T13:29:44.015Z,6.23
2018-05-14T13:32:12.240Z,4.33
2018-05-14T13:34:40.391Z,4.03
2018-05-14T13:37:08.619Z,4.57
2018-05-14T13:39:36.084Z,4.10
2018-05-14T13:42:03.541Z,4.60
2018-05-14T13:44:31.526Z,4.53
2018-05-14T13:46:58.952Z,4.60
2018-05-14T13:49:26.403Z,4.50
2018-05-14T13:51:53.876Z,4.13
2018-05-14T13:54:21.347Z,5.00
2018-05-14T13:56:48.820Z,6.13
2018-05-14T13:59:16.281Z,4.70
2018-05-14T14:01:43.744Z,4.30
2018-05-14T14:04:11.200Z,4.40
2018-05-14T14:06:38.671Z,5.17
2018-05-14T14:09:06.120Z,4.07
2018-05-14T14:11:33.652Z,4.57
2018-05-14T14:14:01.047Z,4.40
2018-05-14T14:16:29.279Z,4.67
2018-05-14T14:18:56.739Z,3.67
2018-05-14T14:21:24.972Z,4.53
2018-05-14T14:23:53.342Z,4.20
2018-05-14T14:26:20.651Z,4.20
2018-05-14T14:28:48.104Z,3.77
2018-05-14T14:31:15.571Z,4.00
2018-05-14T14:33:43.060Z,4.17
2018-05-14T14:36:10.629Z,4.00
2018-05-14T14:38:37.981Z,3.30
2018-05-14T14:41:05.437Z,3.92
2018-05-14T14:43:32.898Z,3.10
2018-05-14T14:46:00.358Z,4.03
2018-05-14T14:48:27.824Z,4.20
2018-05-14T14:50:56.045Z,4.03
2018-05-14T14:53:23.506Z,3.90
2018-05-14T14:55:51.064Z,4.00
2018-05-14T14:58:18.547Z,3.57
2018-05-14T15:00:45.991Z,3.93
2018-05-14T15:03:13.459Z,3.60
2018-05-14T15:05:40.916Z,4.10
2018-05-14T15:08:08.387Z,4.10
2018-05-14T15:10:35.841Z,4.67
2018-05-14T15:13:03.301Z,4.00
2018-05-14T15:15:30.772Z,3.77
2018-05-14T15:17:58.228Z,3.37
2018-05-14T15:20:25.684Z,3.00
2018-05-14T15:22:53.157Z,3.23
2018-05-14T15:25:20.622Z,2.70
2018-05-14T15:27:48.847Z,3.20
2018-05-14T15:30:16.303Z,3.43
2018-05-14T15:32:43.771Z,3.00
2018-05-14T15:35:11.232Z,3.70
2018-05-14T15:37:38.691Z,3.20
2018-05-14T15:40:06.154Z,3.60
2018-05-14T15:42:33.630Z,3.07
2018-05-14T15:45:01.093Z,3.00
2018-05-14T15:47:28.550Z,3.20
2018-05-14T15:49:56.108Z,3.07
2018-05-14T15:52:23.477Z,2.70
2018-05-14T15:54:50.939Z,3.27
2018-05-14T15:57:18.400Z,2.90
2018-05-14T15:59:46.624Z,3.20
2018-05-14T16:02:14.094Z,2.00
2018-05-14T16:04:41.551Z,2.57
2018-05-14T16:07:09.017Z,2.63
2018-05-14T16:09:36.463Z,2.03
2018-05-14T16:12:03.928Z,3.20
2018-05-14T16:14:31.410Z,3.07
2018-05-14T16:16:58.875Z,2.60
2018-05-14T16:19:26.331Z,2.87
2018-05-14T16:21:53.787Z,3.13
2018-05-14T16:24:21.264Z,2.73
2018-05-14T16:26:49.489Z,3.07
2018-05-14T16:29:16.940Z,3.50
2018-05-14T16:31:44.416Z,2.83
2018-05-14T16:34:11.867Z,3.30
2018-05-14T16:36:39.327Z,3.20
2018-05-14T16:39:06.799Z,3.47
2018-05-14T16:41:34.361Z,3.07
2018-05-14T16:44:01.816Z,2.77
2018-05-14T16:46:29.271Z,3.43
2018-05-14T16:48:56.746Z,3.10
2018-05-14T16:51:24.210Z,2.90
2018-05-14T16:53:51.689Z,3.17
2018-05-14T16:56:19.917Z,3.70
2018-05-14T16:58:47.387Z,3.30
2018-05-14T17:01:14.844Z,3.07
2018-05-14T17:03:42.335Z,4.03
2018-05-14T17:06:09.766Z,3.07
2018-05-14T17:08:37.223Z,3.90
2018-05-14T17:11:04.681Z,3.03
2018-05-14T17:13:32.161Z,2.90
2018-05-14T17:15:59.611Z,4.20
2018-05-14T17:18:27.085Z,4.00
2018-05-14T17:20:54.549Z,3.77
2018-05-14T17:23:22.782Z,5.20
2018-05-14T17:25:50.227Z,3.40
2018-05-14T17:28:17.687Z,3.47
2018-05-14T17:30:45.159Z,3.23
2018-05-14T17:33:12.621Z,4.17
2018-05-14T17:35:40.099Z,3.73
2018-05-14T17:38:07.556Z,3.70
2018-05-14T17:40:35.016Z,3.23
2018-05-14T17:43:02.600Z,4.00
2018-05-14T17:45:30.817Z,3.73
2018-05-14T17:47:58.276Z,3.47
2018-05-14T17:50:25.733Z,3.40
2018-05-14T17:52:53.282Z,3.53
2018-05-14T17:55:20.659Z,3.80
2018-05-14T17:57:48.120Z,3.90
2018-05-14T18:00:15.609Z,3.10
2018-05-14T18:02:43.100Z,3.37
2018-05-14T18:05:11.474Z,3.63
2018-05-14T18:07:38.906Z,3.70
2018-05-14T18:10:06.373Z,4.20
2018-05-14T18:12:33.840Z,3.50
2018-05-14T18:15:02.083Z,4.20
2018-05-14T18:17:29.625Z,4.07
2018-05-14T18:22:39.799Z,4.07
2018-05-14T18:25:12.879Z,3.83
2018-05-14T18:27:45.991Z,4.90
2018-05-14T18:30:13.451Z,4.97
2018-05-14T18:32:41.060Z,4.17
2018-05-14T18:35:25.148Z,4.00
2018-05-14T18:37:52.672Z,4.50
2018-05-14T18:40:20.152Z,4.20
2018-05-14T18:42:47.617Z,4.10
2018-05-14T18:45:15.069Z,3.63
2018-05-14T18:47:42.523Z,4.80
2018-05-14T18:50:10.046Z,5.03
2018-05-14T18:52:37.593Z,4.00
2018-05-14T18:55:05.054Z,4.33
2018-05-14T19:00:25.771Z,4.30
2018-05-14T19:02:53.244Z,5.10
2018-05-14T19:05:20.700Z,5.07
2018-05-14T19:07:48.183Z,5.10
2018-05-14T19:10:21.291Z,5.43
2018-05-14T19:12:48.752Z,4.80
2018-05-14T19:15:22.074Z,4.70
2018-05-14T19:17:55.353Z,5.13
2018-05-14T19:20:22.807Z,4.50
2018-05-14T19:22:55.905Z,5.13
2018-05-14T19:25:23.365Z,4.60
2018-05-14T19:27:56.641Z,4.13
2018-05-14T19:30:24.153Z,4.30
2018-05-14T19:32:51.604Z,4.47
2018-05-14T19:35:24.811Z,5.07
2018-05-14T19:37:52.268Z,5.17
2018-05-14T19:40:25.401Z,4.63
2018-05-14T19:42:52.891Z,4.93
2018-05-14T19:45:20.354Z,5.33
2018-05-14T19:47:47.812Z,5.30
2018-05-14T19:50:15.288Z,5.23
2018-05-14T19:52:42.754Z,5.87
2018-05-14T19:55:10.215Z,6.50
2018-05-14T19:57:37.764Z,5.83
2018-05-14T20:00:05.228Z,5.30
2018-05-14T20:02:32.779Z,5.60
2018-05-14T20:05:00.237Z,5.57
2018-05-14T20:07:27.700Z,5.50
2018-05-14T20:09:55.168Z,6.07
2018-05-14T20:12:22.625Z,4.77
2018-05-14T20:14:50.092Z,5.00
2018-05-14T20:17:18.313Z,6.13
2018-05-14T20:19:45.770Z,5.70
2018-05-14T20:22:13.220Z,5.70
2018-05-14T20:24:40.686Z,6.10
2018-05-14T20:27:08.139Z,5.37
2018-05-14T20:29:35.617Z,5.63
2018-05-14T20:32:03.067Z,6.30
2018-05-14T20:34:30.542Z,7.37
2018-05-14T20:36:58.805Z,6.07
2018-05-14T20:39:26.271Z,6.10
2018-05-14T20:41:53.729Z,5.93
2018-05-14T20:44:21.208Z,6.00
2018-05-14T20:46:48.759Z,5.23
2018-05-14T20:49:16.222Z,6.50
2018-05-14T20:51:43.788Z,6.10
2018-05-14T20:54:11.251Z,6.17
2018-05-14T20:56:38.734Z,6.03
2018-05-14T20:59:06.959Z,6.33
2018-05-14T21:01:34.417Z,6.87
2018-05-14T21:04:01.959Z,5.87
2018-05-14T21:06:29.420Z,6.20
2018-05-14T21:08:56.895Z,6.70
2018-05-14T21:11:24.354Z,6.97
2018-05-14T21:13:51.824Z,6.67
2018-05-14T21:16:19.271Z,6.50
2018-05-14T21:18:46.754Z,7.33
2018-05-14T21:21:14.237Z,6.70
2018-05-14T21:23:42.488Z,7.37
2018-05-14T21:26:09.996Z,6.50
2018-05-14T21:28:37.479Z,6.33
2018-05-14T21:31:04.945Z,5.60
2018-05-14T21:33:32.400Z,6.20
2018-05-14T21:35:59.873Z,7.10
2018-05-14T21:38:27.341Z,6.20
2018-05-14T21:40:55.921Z,7.30
2018-05-14T21:43:23.458Z,6.50
2018-05-14T21:45:50.929Z,7.23
2018-05-14T21:48:18.763Z,6.60
2018-05-14T21:50:46.221Z,6.73
2018-05-14T21:53:13.721Z,6.67
2018-05-14T21:55:41.184Z,7.13
2018-05-14T21:58:08.693Z,7.60
2018-05-14T22:00:36.151Z,8.00
2018-05-14T22:03:03.610Z,7.47
2018-05-14T22:05:31.112Z,7.73
2018-05-14T22:07:58.579Z,7.30
2018-05-14T22:10:26.805Z,7.77
2018-05-14T22:12:54.265Z,7.30
2018-05-14T22:15:21.767Z,7.13
2018-05-14T22:17:49.320Z,7.50
2018-05-14T22:20:16.879Z,6.93
2018-05-14T22:22:44.339Z,8.30
2018-05-14T22:25:11.813Z,6.53
2018-05-14T22:27:39.355Z,8.00
2018-05-14T22:30:06.915Z,8.80
2018-05-14T22:32:34.372Z,8.10
2018-05-14T22:35:01.947Z,7.83
2018-05-14T22:37:29.509Z,8.00
2018-05-14T22:39:56.895Z,7.80
2018-05-14T22:42:25.134Z,7.80
2018-05-14T22:44:52.606Z,7.83
2018-05-14T22:47:20.065Z,8.10
2018-05-14T22:49:49.044Z,8.50
2018-05-14T22:52:16.523Z,8.60
2018-05-14T22:54:44.780Z,8.40
2018-05-14T22:57:12.235Z,8.83
2018-05-14T22:59:39.806Z,8.30
2018-05-14T23:02:07.255Z,9.40
2018-05-14T23:04:34.726Z,8.47
2018-05-14T23:07:02.271Z,8.13
2018-05-14T23:09:29.760Z,7.30
2018-05-14T23:11:57.207Z,8.63
2018-05-14T23:14:24.723Z,8.50
2018-05-14T23:16:52.275Z,8.77
2018-05-14T23:19:19.722Z,7.17
2018-05-14T23:21:47.179Z,8.07
2018-05-14T23:24:14.671Z,8.73
2018-05-14T23:26:42.140Z,8.50
2018-05-14T23:29:09.624Z,8.50
2018-05-14T23:31:37.205Z,8.67
2018-05-14T23:34:05.427Z,8.83
2018-05-14T23:36:32.896Z,8.10
2018-05-14T23:39:00.360Z,9.17
2018-05-14T23:41:27.916Z,8.30
2018-05-14T23:43:55.479Z,8.97
2018-05-14T23:46:23.039Z,9.37
2018-05-14T23:48:50.516Z,8.70
2018-05-14T23:51:19.492Z,8.53
2018-05-14T23:53:47.051Z,7.70
2018-05-14T23:56:14.529Z,9.73
2018-05-14T23:58:41.987Z,8.67
